createdAt,value
2019-04-07T00:08:06.788Z,36.43
2019-04-07T00:21:23.228Z,38.97
2019-04-07T00:23:57.906Z,34.07
2019-04-07T00:38:26.725Z,34.70
2019-04-07T00:41:00.314Z,34.37
2019-04-07T00:43:34.187Z,38.47
2019-04-07T00:46:08.843Z,37.03
2019-04-07T00:48:42.463Z,35.83
2019-04-07T00:51:31.153Z,34.53
2019-04-07T00:54:04.348Z,37.40
2019-04-07T00:56:50.181Z,38.80
2019-04-07T00:59:24.245Z,36.90
2019-04-07T01:01:58.038Z,38.50
2019-04-07T01:04:32.160Z,46.13
2019-04-07T01:18:09.184Z,42.00
2019-04-07T01:20:43.022Z,42.83
2019-04-07T01:23:17.035Z,40.73
2019-04-07T01:25:51.213Z,43.63
2019-04-07T01:39:49.222Z,41.30
2019-04-07T01:42:41.024Z,42.00
2019-04-07T01:45:36.107Z,41.27
2019-04-07T01:48:16.097Z,35.40
2019-04-07T02:01:52.754Z,33.07
2019-04-07T02:04:52.138Z,33.60
2019-04-07T02:07:53.935Z,33.67
2019-04-07T02:10:55.119Z,34.80
2019-04-07T02:13:42.916Z,38.47
2019-04-07T02:16:27.002Z,34.07
2019-04-07T02:19:12.850Z,37.20
2019-04-07T02:22:28.188Z,41.20
2019-04-07T02:25:11.955Z,41.23
2019-04-07T02:27:58.132Z,40.67
2019-04-07T02:31:28.305Z,39.27
2019-04-07T02:34:13.642Z,40.67
2019-04-07T02:37:36.690Z,39.73
2019-04-07T02:40:26.754Z,39.03
2019-04-07T02:43:35.249Z,36.10
2019-04-07T02:46:27.650Z,43.03
2019-04-07T02:49:56.461Z,39.23
2019-04-07T02:52:49.198Z,40.13
2019-04-07T02:55:53.639Z,33.83
2019-04-07T02:58:44.296Z,35.10
2019-04-07T03:02:04.803Z,38.97
2019-04-07T03:04:58.768Z,32.27
2019-04-07T03:18:57.981Z,36.37
2019-04-07T03:21:42.584Z,37.33
2019-04-07T03:24:28.782Z,42.10
2019-04-07T03:27:31.332Z,38.77
2019-04-07T03:30:32.762Z,44.00
2019-04-07T03:33:40.262Z,45.37
2019-04-07T03:37:19.176Z,41.40
2019-04-07T03:40:14.057Z,45.17
2019-04-07T03:43:44.112Z,45.50
2019-04-07T03:47:10.586Z,41.47
2019-04-07T03:50:03.391Z,42.83
2019-04-07T03:53:16.340Z,45.47
2019-04-07T03:56:11.778Z,48.33
2019-04-07T03:59:10.988Z,43.83
2019-04-07T04:02:15.841Z,41.63
2019-04-07T04:04:59.615Z,41.97
2019-04-07T04:07:47.950Z,39.77
2019-04-07T04:10:40.920Z,42.30
2019-04-07T04:13:28.124Z,41.17
2019-04-07T04:16:15.593Z,43.40
2019-04-07T04:18:50.427Z,44.33
2019-04-07T04:21:24.406Z,39.17
2019-04-07T04:23:59.039Z,36.70
2019-04-07T04:26:33.148Z,33.60
2019-04-07T04:29:08.295Z,45.13
2019-04-07T04:31:47.510Z,37.57
2019-04-07T04:34:46.632Z,38.93
2019-04-07T04:37:34.567Z,45.33
2019-04-07T04:39:57.548Z,45.47
2019-04-07T04:42:50.911Z,48.23
2019-04-07T04:45:26.329Z,49.83
2019-04-07T04:48:13.300Z,46.40
2019-04-07T04:51:06.657Z,52.63
2019-04-07T04:53:42.291Z,49.70
2019-04-07T04:56:16.792Z,48.00
2019-04-07T04:58:50.837Z,55.57
2019-04-07T05:01:25.292Z,54.30
2019-04-07T05:04:10.025Z,47.73
2019-04-07T05:06:44.598Z,49.27
2019-04-07T05:09:18.434Z,48.87
2019-04-07T05:11:52.834Z,50.30
2019-04-07T05:14:38.052Z,51.80
2019-04-07T05:17:11.746Z,49.37
2019-04-07T05:19:49.117Z,48.13
2019-04-07T05:22:57.603Z,47.43
2019-04-07T05:25:31.691Z,54.73
2019-04-07T05:28:06.260Z,50.77
2019-04-07T05:30:40.622Z,56.97
2019-04-07T05:33:15.409Z,53.20
2019-04-07T05:35:49.678Z,50.07
2019-04-07T05:38:24.049Z,51.10
2019-04-07T05:40:58.735Z,48.57
2019-04-07T05:43:50.289Z,47.63
2019-04-07T05:46:25.049Z,53.27
2019-04-07T05:49:00.414Z,51.67
2019-04-07T05:51:37.057Z,45.67
2019-04-07T06:15:46.638Z,54.90
2019-04-07T06:18:21.069Z,58.73
2019-04-07T06:20:55.466Z,63.17
2019-04-07T06:23:29.863Z,61.53
2019-04-07T06:26:11.201Z,64.40
2019-04-07T06:28:43.872Z,59.73
2019-04-07T06:44:59.474Z,57.43
2019-04-07T06:47:56.266Z,49.57
2019-04-07T06:51:01.948Z,51.37
2019-04-07T06:54:09.220Z,50.17
2019-04-07T06:57:37.428Z,47.17
2019-04-07T07:00:29.011Z,46.80
2019-04-07T07:29:33.825Z,39.60
2019-04-07T07:32:08.234Z,39.07
2019-04-07T07:34:43.395Z,39.97
2019-04-07T07:37:18.393Z,40.93
2019-04-07T07:39:51.989Z,38.03
2019-04-07T07:42:27.898Z,37.03
2019-04-07T07:45:13.987Z,39.77
2019-04-07T07:47:51.336Z,34.83
2019-04-07T07:50:23.333Z,39.27
2019-04-07T07:52:57.117Z,35.00
2019-04-07T07:55:35.988Z,36.50
2019-04-07T07:58:07.276Z,33.40
2019-04-07T08:00:43.352Z,35.53
2019-04-07T08:03:28.974Z,33.70
2019-04-07T08:06:06.931Z,34.90
2019-04-07T08:08:38.208Z,30.23
2019-04-07T08:11:15.048Z,32.07
2019-04-07T08:13:47.986Z,31.97
2019-04-07T08:16:20.934Z,32.23
2019-04-07T08:19:13.579Z,27.17
2019-04-07T08:21:50.487Z,29.17
2019-04-07T08:24:51.997Z,32.77
2019-04-07T08:27:31.026Z,31.83
2019-04-07T08:30:16.217Z,27.40
2019-04-07T08:32:50.136Z,28.17
2019-04-07T08:35:24.337Z,29.73
2019-04-07T08:37:58.507Z,29.47
2019-04-07T08:40:49.817Z,30.07
2019-04-07T08:43:24.783Z,27.00
2019-04-07T08:46:02.247Z,24.37
2019-04-07T08:48:49.734Z,26.13
2019-04-07T08:51:33.697Z,25.47
2019-04-07T08:54:19.034Z,27.27
2019-04-07T08:57:05.680Z,26.57
2019-04-07T08:59:42.438Z,24.70
2019-04-07T09:02:15.298Z,26.37
2019-04-07T09:05:01.302Z,24.50
2019-04-07T09:07:35.415Z,21.03
2019-04-07T09:10:36.992Z,22.57
2019-04-07T09:13:10.533Z,22.57
2019-04-07T09:16:26.925Z,23.57
2019-04-07T09:19:22.872Z,22.17
2019-04-07T09:22:14.529Z,21.30
2019-04-07T09:25:26.136Z,22.73
2019-04-07T09:28:23.969Z,21.67
2019-04-07T09:31:33.275Z,22.87
2019-04-07T09:34:20.092Z,21.83
2019-04-07T09:37:18.576Z,22.20
2019-04-07T09:40:17.179Z,20.50
2019-04-07T09:43:30.584Z,23.17
2019-04-07T09:46:32.218Z,20.47
2019-04-07T09:49:29.986Z,22.20
2019-04-07T09:52:25.728Z,24.23
2019-04-07T09:55:26.285Z,19.30
2019-04-07T09:58:26.290Z,16.90
2019-04-07T10:01:22.242Z,18.67
2019-04-07T10:04:14.957Z,16.27
2019-04-07T10:07:02.565Z,17.80
2019-04-07T10:10:14.512Z,15.97
2019-04-07T10:13:16.546Z,16.63
2019-04-07T10:16:15.055Z,15.40
2019-04-07T10:19:11.155Z,17.93
2019-04-07T10:22:03.494Z,16.20
2019-04-07T10:25:05.508Z,19.37
2019-04-07T10:28:07.300Z,17.83
2019-04-07T10:30:56.761Z,15.70
2019-04-07T10:34:08.230Z,17.50
2019-04-07T10:37:19.425Z,15.60
2019-04-07T10:40:30.056Z,16.63
2019-04-07T10:43:26.152Z,17.87
2019-04-07T10:46:30.931Z,16.07
2019-04-07T10:49:24.092Z,17.93
2019-04-07T10:52:27.171Z,16.77
2019-04-07T10:55:38.113Z,17.60
2019-04-07T10:58:38.045Z,16.27
2019-04-07T11:01:21.075Z,16.97
2019-04-07T11:04:12.811Z,17.03
2019-04-07T11:07:31.697Z,16.67
2019-04-07T11:10:35.523Z,16.13
2019-04-07T11:13:20.966Z,17.53
2019-04-07T11:16:12.756Z,15.07
2019-04-07T11:19:19.033Z,15.23
2019-04-07T11:22:40.084Z,14.90
2019-04-07T11:25:37.117Z,16.80
2019-04-07T11:28:30.628Z,17.33
2019-04-07T11:31:23.252Z,18.13
2019-04-07T11:34:19.410Z,15.03
2019-04-07T11:37:24.521Z,16.13
2019-04-07T11:40:27.023Z,17.60
2019-04-07T11:43:21.297Z,14.23
2019-04-07T11:46:03.493Z,14.90
2019-04-07T11:49:19.479Z,17.30
2019-04-07T11:52:27.864Z,15.00
2019-04-07T11:55:34.655Z,14.87
2019-04-07T11:58:31.461Z,15.47
2019-04-07T12:01:39.449Z,15.50
2019-04-07T12:04:27.701Z,16.60
2019-04-07T12:07:21.905Z,17.27
2019-04-07T12:10:20.350Z,16.67
2019-04-07T12:13:22.494Z,14.40
2019-04-07T12:16:22.037Z,14.43
2019-04-07T12:19:23.903Z,14.07
2019-04-07T12:22:18.141Z,12.50
2019-04-07T12:25:10.686Z,10.83
2019-04-07T12:28:03.669Z,12.67
2019-04-07T12:31:12.006Z,10.87
2019-04-07T12:34:33.125Z,10.57
2019-04-07T12:37:47.738Z,11.37
2019-04-07T12:41:19.742Z,13.67
2019-04-07T12:44:30.424Z,15.37
2019-04-07T12:47:23.719Z,16.63
2019-04-07T12:50:15.510Z,14.30
2019-04-07T12:53:05.993Z,13.40
2019-04-07T12:56:02.506Z,16.80
2019-04-07T12:59:03.346Z,12.67
2019-04-07T13:02:29.944Z,13.77
2019-04-07T13:05:13.275Z,15.57
2019-04-07T13:08:06.048Z,11.40
2019-04-07T13:10:59.100Z,22.43
2019-04-07T13:13:50.594Z,14.27
2019-04-07T13:16:40.411Z,13.17
2019-04-07T13:19:58.148Z,13.73
2019-04-07T13:22:53.125Z,11.70
2019-04-07T13:25:32.442Z,13.00
2019-04-07T13:28:59.171Z,13.30
2019-04-07T13:31:51.777Z,11.90
2019-04-07T13:34:59.289Z,12.83
2019-04-07T13:37:42.545Z,12.70
2019-04-07T13:40:44.149Z,12.33
2019-04-07T13:44:07.679Z,13.10
2019-04-07T13:47:08.578Z,14.83
2019-04-07T13:50:19.245Z,11.63
2019-04-07T13:53:14.645Z,10.27
2019-04-07T13:56:19.478Z,12.10
2019-04-07T13:59:18.012Z,11.27
2019-04-07T14:01:58.008Z,11.63
2019-04-07T14:04:45.657Z,12.83
2019-04-07T14:07:55.417Z,11.50
2019-04-07T14:10:37.129Z,14.07
2019-04-07T14:13:31.140Z,10.93
2019-04-07T14:16:17.935Z,13.10
2019-04-07T14:19:37.053Z,10.73
2019-04-07T14:22:58.392Z,12.27
2019-04-07T14:25:52.956Z,12.87
2019-04-07T14:28:43.970Z,10.93
2019-04-07T14:31:46.199Z,10.97
2019-04-07T14:34:39.108Z,10.73
2019-04-07T14:37:30.791Z,9.80
2019-04-07T14:40:53.176Z,10.47
2019-04-07T14:44:00.420Z,12.77
2019-04-07T14:46:58.483Z,16.17
2019-04-07T14:49:51.907Z,14.13
2019-04-07T14:52:47.106Z,10.17
2019-04-07T14:55:38.178Z,12.43
2019-04-07T14:58:26.988Z,11.17
2019-04-07T15:01:15.722Z,11.57
2019-04-07T15:03:48.938Z,11.00
2019-04-07T15:06:40.511Z,15.27
2019-04-07T15:09:19.854Z,10.77
2019-04-07T15:12:18.558Z,12.23
2019-04-07T15:14:49.139Z,12.87
2019-04-07T15:17:36.470Z,9.87
2019-04-07T15:20:13.648Z,10.33
2019-04-07T15:22:58.378Z,10.20
2019-04-07T15:25:49.470Z,10.97
2019-04-07T15:28:23.598Z,10.90
2019-04-07T15:30:56.892Z,10.67
2019-04-07T15:33:42.400Z,11.33
2019-04-07T15:36:28.065Z,11.10
2019-04-07T15:39:02.004Z,12.37
2019-04-07T15:41:45.706Z,11.90
2019-04-07T15:44:19.705Z,10.97
2019-04-07T15:46:53.469Z,10.97
2019-04-07T15:49:37.708Z,12.47
2019-04-07T15:52:11.325Z,10.53
2019-04-07T15:54:57.347Z,11.83
2019-04-07T15:57:42.802Z,15.03
2019-04-07T16:00:28.317Z,14.07
2019-04-07T16:03:15.756Z,13.33
2019-04-07T16:05:49.094Z,10.63
2019-04-07T16:08:26.024Z,12.57
2019-04-07T16:10:59.527Z,11.00
2019-04-07T16:13:33.759Z,12.67
2019-04-07T16:16:07.984Z,10.67
2019-04-07T16:18:43.313Z,12.07
2019-04-07T16:21:29.789Z,10.70
2019-04-07T16:24:04.075Z,10.47
2019-04-07T16:26:37.643Z,11.13
2019-04-07T16:29:11.536Z,13.97
2019-04-07T16:31:44.248Z,11.33
2019-04-07T16:34:21.018Z,12.43
2019-04-07T16:36:57.189Z,11.97
2019-04-07T16:39:34.112Z,10.67
2019-04-07T16:42:05.280Z,11.70
2019-04-07T16:44:42.607Z,11.17
2019-04-07T16:47:20.841Z,11.00
2019-04-07T16:49:50.253Z,11.83
2019-04-07T16:52:24.412Z,11.03
2019-04-07T16:54:58.548Z,12.67
2019-04-07T16:57:45.044Z,12.97
2019-04-07T17:00:19.140Z,11.17
2019-04-07T17:03:05.576Z,12.37
2019-04-07T17:05:39.916Z,10.77
2019-04-07T17:08:28.628Z,12.60
2019-04-07T17:11:05.220Z,12.63
2019-04-07T17:13:41.252Z,12.50
2019-04-07T17:16:25.053Z,10.33
2019-04-07T17:18:58.825Z,10.40
2019-04-07T17:21:33.077Z,10.53
2019-04-07T17:24:18.484Z,10.10
2019-04-07T17:27:03.228Z,10.70
2019-04-07T17:29:37.045Z,13.10
2019-04-07T17:32:10.929Z,10.07
2019-04-07T17:34:56.327Z,12.30
2019-04-07T17:37:40.620Z,10.57
2019-04-07T17:40:15.797Z,10.93
2019-04-07T17:43:31.626Z,9.13
2019-04-07T17:46:46.937Z,11.00
2019-04-07T17:49:35.692Z,10.53
2019-04-07T17:52:27.982Z,14.53
2019-04-07T17:55:34.965Z,10.77
2019-04-07T17:58:31.017Z,10.03
2019-04-07T18:01:24.723Z,10.17
2019-04-07T18:04:30.828Z,10.97
2019-04-07T18:07:23.340Z,11.53
2019-04-07T18:10:26.308Z,13.23
2019-04-07T18:13:22.674Z,11.50
2019-04-07T18:16:12.290Z,11.67
2019-04-07T18:19:04.989Z,11.33
2019-04-07T18:22:29.827Z,13.50
2019-04-07T18:25:23.967Z,11.77
2019-04-07T18:28:33.689Z,11.97
2019-04-07T18:31:13.297Z,10.73
2019-04-07T18:34:11.243Z,12.97
2019-04-07T18:37:06.979Z,11.03
2019-04-07T18:40:33.581Z,11.83
2019-04-07T18:46:55.099Z,14.87
2019-04-07T18:49:58.256Z,14.00
2019-04-07T18:52:53.250Z,12.00
2019-04-07T18:55:51.023Z,15.03
2019-04-07T18:58:51.673Z,12.43
2019-04-07T19:01:42.705Z,16.37
2019-04-07T19:04:35.552Z,16.27
2019-04-07T19:07:17.296Z,17.83
2019-04-07T19:10:24.213Z,19.63
2019-04-07T19:13:23.514Z,16.03
2019-04-07T19:16:18.707Z,15.50
2019-04-07T19:19:33.389Z,16.80
2019-04-07T19:22:32.494Z,13.57
2019-04-07T19:25:15.759Z,15.03
2019-04-07T19:39:24.980Z,15.00
2019-04-07T19:42:27.392Z,13.10
2019-04-07T19:45:25.421Z,14.97
2019-04-07T19:48:56.287Z,12.73
2019-04-07T19:52:09.762Z,16.10
2019-04-07T19:55:08.823Z,15.20
2019-04-07T19:58:02.728Z,16.10
2019-04-07T20:01:32.519Z,23.93
2019-04-07T20:15:30.662Z,18.40
2019-04-07T20:18:46.044Z,21.27
2019-04-07T20:21:39.221Z,20.43
2019-04-07T20:24:19.663Z,20.47
2019-04-07T20:27:15.368Z,20.97
2019-04-07T20:30:08.375Z,18.13
2019-04-07T20:33:25.085Z,17.90
2019-04-07T20:36:23.080Z,19.30
2019-04-07T20:39:49.295Z,21.27
2019-04-07T20:42:29.001Z,22.23
2019-04-07T20:45:22.813Z,19.67
2019-04-07T20:48:19.619Z,20.07
2019-04-07T20:51:12.900Z,19.33
2019-04-07T20:54:05.572Z,20.93
2019-04-07T20:57:09.268Z,21.87
2019-04-07T21:00:08.545Z,26.47
2019-04-07T21:03:15.343Z,20.33
2019-04-07T21:05:53.457Z,24.67
2019-04-07T21:08:48.531Z,25.60
2019-04-07T21:11:36.394Z,24.33
2019-04-07T21:14:22.849Z,22.43
2019-04-07T21:17:13.810Z,22.23
2019-04-07T21:20:07.366Z,22.87
2019-04-07T21:23:02.858Z,23.70
2019-04-07T21:26:08.304Z,21.57
2019-04-07T21:28:48.379Z,26.00
2019-04-07T21:31:50.709Z,22.53
2019-04-07T21:34:38.503Z,24.70
2019-04-07T21:38:28.685Z,23.67
2019-04-07T21:41:22.740Z,21.53
2019-04-07T21:55:34.222Z,22.07
2019-04-07T22:33:32.351Z,26.37
2019-04-07T22:36:23.865Z,25.23
2019-04-07T22:39:02.387Z,28.60
2019-04-07T22:41:57.487Z,25.53
2019-04-07T22:44:37.904Z,25.60
2019-04-07T22:47:13.283Z,27.53
2019-04-07T22:49:48.813Z,27.20
2019-04-07T22:52:23.149Z,25.50
2019-04-07T22:55:16.500Z,25.10
2019-04-07T22:57:54.330Z,23.80
2019-04-07T23:00:35.928Z,24.37
2019-04-07T23:03:19.781Z,27.03
2019-04-07T23:06:16.827Z,25.40
2019-04-07T23:09:05.741Z,29.37
2019-04-07T23:11:44.090Z,22.77
2019-04-07T23:14:29.404Z,25.17
2019-04-07T23:17:08.421Z,23.80
2019-04-07T23:20:15.126Z,26.43
2019-04-07T23:22:56.188Z,24.97
2019-04-07T23:25:42.019Z,24.60
2019-04-07T23:28:25.622Z,22.60
2019-04-07T23:31:09.638Z,24.90
2019-04-07T23:33:46.042Z,23.00
2019-04-07T23:36:34.421Z,21.93
2019-04-07T23:39:15.180Z,22.50
2019-04-07T23:41:55.615Z,23.53
2019-04-07T23:44:40.774Z,25.70
2019-04-07T23:47:27.726Z,26.70
2019-04-07T23:50:07.574Z,25.43
2019-04-07T23:52:52.112Z,24.77
2019-04-07T23:56:15.612Z,24.47
2019-04-07T23:59:04.709Z,26.17
